Terminal Aerodrome Forecast
Issued by NWS Norman, OK

Home | Current Version | Previous Version | Text Only | Print | Product List | Glossary On
Versions: 1 2 3 4 5 6 7 8 9 10 11 12 13 14 15 16 17 18 19 20 21 22 23
000
FTUS44 KOUN 281130
TAFSPS
TAF
KSPS 281130Z 2812/0112 07009KT 4SM -SN OVC025
      TEMPO 2812/2816 BKN009 OVC025
     FM281700 12010KT 5SM -FZDZ OVC008
     FM282200 13008KT 3SM -DZ BR OVC007
     FM010100 12008KT 1SM -DZ BR OVC005
     FM010600 12005KT 1/2SM FZDZ FG OVC003 PROB30 0106/0112 1/2SM
      FZDZ FG VV003=

USA.gov is the U.S. government's official web portal to all federal, state and local government web resources and services.